Time;durP1;ratioP1;P1;durP2;ratioP2;P2;SDS_P1;SDS_P2;PMS_P1;PMS_P2;Temp;Humidity;BMP_temperature;BMP_pressure;BME280_temperature;BME280_humidity;BME280_pressure;Samples;Min_cycle;Max_cycle;Signal;HPM_P1;HPM_P2
2021/11/15 00:00:46;;;;;;;5.68;4.43;;;17.60;99.90;;;;;;5055477;28;20029;-59
2021/11/15 00:03:15;;;;;;;5.40;4.32;;;17.60;99.90;;;;;;5037226;28;20052;-59
2021/11/15 00:05:40;;;;;;;6.45;4.60;;;17.70;99.90;;;;;;5035939;28;20032;-59
2021/11/15 00:08:06;;;;;;;5.75;4.80;;;17.80;99.90;;;;;;5041942;28;20024;-59
2021/11/15 00:10:32;;;;;;;6.40;4.30;;;17.80;99.90;;;;;;5055784;28;20025;-59
2021/11/15 00:12:58;;;;;;;4.63;3.75;;;17.80;99.90;;;;;;5053562;28;20412;-59
2021/11/15 00:15:24;;;;;;;3.25;2.95;;;17.80;99.90;;;;;;5055589;28;20108;-59
2021/11/15 00:17:50;;;;;;;5.63;3.25;;;17.70;99.90;;;;;;5051671;28;20077;-59
2021/11/15 00:20:17;;;;;;;3.72;3.42;;;17.70;99.90;;;;;;5055544;28;20025;-58
2021/11/15 00:22:44;;;;;;;4.28;3.53;;;17.70;99.90;;;;;;5041411;28;20403;-59
2021/11/15 00:25:11;;;;;;;3.70;3.40;;;17.70;99.90;;;;;;5035650;28;20021;-59
2021/11/15 00:27:37;;;;;;;3.58;3.28;;;17.70;99.90;;;;;;5046288;28;20391;-59
2021/11/15 00:30:06;;;;;;;3.10;2.63;;;17.60;99.90;;;;;;5055227;28;20045;-59
2021/11/15 00:32:32;;;;;;;3.17;2.85;;;17.30;99.90;;;;;;5054483;28;20033;-59
2021/11/15 00:34:58;;;;;;;3.72;2.78;;;17.30;99.90;;;;;;5053273;28;20088;-59
2021/11/15 00:37:24;;;;;;;3.55;3.25;;;17.20;99.90;;;;;;5044336;28;20100;-58
2021/11/15 00:39:49;;;;;;;3.05;2.55;;;17.30;99.90;;;;;;5035323;28;20111;-59
2021/11/15 00:42:16;;;;;;;2.80;2.55;;;17.30;99.90;;;;;;5043805;28;20029;-59
2021/11/15 00:44:42;;;;;;;2.60;2.40;;;17.00;99.90;;;;;;5055181;28;20044;-59
2021/11/15 00:47:08;;;;;;;3.05;2.75;;;17.20;99.90;;;;;;5046608;28;20033;-59
2021/11/15 00:49:34;;;;;;;2.97;2.42;;;17.10;99.90;;;;;;5035330;28;20025;-58
2021/11/15 00:52:00;;;;;;;2.50;2.30;;;17.30;99.90;;;;;;5040216;28;20466;-59
2021/11/15 00:54:26;;;;;;;2.60;2.30;;;17.30;99.90;;;;;;5054383;28;20041;-58
2021/11/15 00:56:51;;;;;;;2.92;2.63;;;17.40;99.90;;;;;;5049163;28;20036;-60
2021/11/15 00:59:17;;;;;;;3.67;2.83;;;17.30;99.90;;;;;;5035052;28;20048;-58
2021/11/15 01:01:43;;;;;;;3.05;2.30;;;17.20;99.90;;;;;;5038213;28;20394;-59
2021/11/15 01:04:09;;;;;;;2.50;2.30;;;16.90;99.90;;;;;;5034947;28;20041;-59
2021/11/15 01:06:34;;;;;;;2.83;2.30;;;16.70;99.90;;;;;;5036721;28;21536;-59
2021/11/15 01:09:00;;;;;;;2.38;2.10;;;16.70;99.90;;;;;;5054759;28;20025;-59
2021/11/15 01:11:26;;;;;;;2.28;2.03;;;16.70;99.90;;;;;;5053229;28;20025;-59
2021/11/15 01:13:52;;;;;;;3.00;2.53;;;16.70;99.90;;;;;;5034883;28;20017;-59
2021/11/15 01:16:18;;;;;;;2.63;2.42;;;16.80;99.90;;;;;;5034469;28;20030;-59
2021/11/15 01:18:45;;;;;;;2.88;2.45;;;16.90;99.90;;;;;;5034948;28;20056;-59
2021/11/15 01:21:12;;;;;;;4.25;2.22;;;16.80;99.90;;;;;;5034608;28;20013;-60
2021/11/15 01:23:39;;;;;;;5.15;2.20;;;16.80;99.90;;;;;;5034520;28;20487;-60
2021/11/15 01:26:06;;;;;;;3.17;2.65;;;16.70;99.90;;;;;;5034495;28;20021;-59
2021/11/15 01:28:33;;;;;;;2.05;1.90;;;16.80;99.90;;;;;;5050874;28;20182;-59
2021/11/15 01:30:59;;;;;;;2.55;2.35;;;16.60;99.90;;;;;;5047738;28;20503;-60
2021/11/15 01:33:25;;;;;;;2.65;2.45;;;16.60;99.90;;;;;;5052690;28;20059;-59
2021/11/15 01:35:51;;;;;;;2.55;2.05;;;16.70;99.90;;;;;;5050995;28;20021;-59
2021/11/15 01:38:17;;;;;;;2.15;1.95;;;16.50;99.90;;;;;;5053637;28;20028;-59
2021/11/15 01:40:42;;;;;;;1.63;1.52;;;16.50;99.90;;;;;;5053505;28;20025;-59
2021/11/15 01:43:08;;;;;;;2.38;1.90;;;16.30;99.90;;;;;;5054044;28;20116;-60
2021/11/15 01:45:37;;;;;;;2.40;2.13;;;16.30;99.90;;;;;;5053042;28;20037;-60
2021/11/15 01:48:05;;;;;;;2.92;2.17;;;16.60;99.90;;;;;;5053149;28;20475;-59
2021/11/15 01:50:33;;;;;;;3.55;2.00;;;16.70;99.90;;;;;;5052927;28;22354;-59
2021/11/15 01:53:01;;;;;;;2.25;1.95;;;16.70;99.90;;;;;;5054039;28;20071;-59
2021/11/15 01:55:28;;;;;;;1.80;1.70;;;16.50;99.90;;;;;;5051953;28;20040;-60
2021/11/15 01:57:55;;;;;;;2.42;2.22;;;16.60;99.90;;;;;;5053758;28;20021;-59
2021/11/15 02:00:35;;;;;;;2.47;1.70;;;16.60;99.90;;;;;;5052727;28;20085;-59
2021/11/15 02:03:01;;;;;;;1.70;1.60;;;16.40;99.90;;;;;;5053833;28;20044;-59
2021/11/15 02:05:27;;;;;;;2.42;1.80;;;16.50;99.90;;;;;;5052128;28;20099;-60
2021/11/15 02:07:52;;;;;;;1.95;1.52;;;16.50;99.90;;;;;;5053436;28;20103;-61
2021/11/15 02:10:18;;;;;;;2.97;2.00;;;16.30;99.90;;;;;;5053019;28;20032;-59
2021/11/15 02:12:45;;;;;;;2.53;2.13;;;16.40;99.90;;;;;;5053508;28;20028;-59
2021/11/15 02:15:13;;;;;;;2.28;2.08;;;16.40;99.90;;;;;;5053509;28;20105;-60
2021/11/15 02:17:43;;;;;;;2.60;1.98;;;16.30;99.90;;;;;;5052508;28;20029;-60
2021/11/15 02:20:20;;;;;;;3.35;2.65;;;16.30;99.90;;;;;;5051358;28;20383;-60
2021/11/15 02:22:47;;;;;;;2.88;2.20;;;16.30;99.90;;;;;;5033801;28;20033;-60
2021/11/15 02:25:19;;;;;;;2.58;2.38;;;16.40;99.90;;;;;;5033532;28;20025;-60
2021/11/15 02:27:46;;;;;;;3.03;2.42;;;16.40;99.90;;;;;;5052040;28;20032;-59
2021/11/15 02:30:15;;;;;;;4.32;3.13;;;16.40;99.90;;;;;;5053102;28;20053;-60
2021/11/15 02:32:41;;;;;;;4.13;2.55;;;16.30;99.90;;;;;;5052231;28;20025;-59
2021/11/15 02:35:08;;;;;;;2.65;2.45;;;16.30;99.90;;;;;;5051608;28;20036;-59
2021/11/15 02:37:34;;;;;;;3.08;2.78;;;16.20;99.90;;;;;;5052121;28;20513;-59
2021/11/15 02:40:01;;;;;;;3.40;2.40;;;16.30;99.90;;;;;;5051815;28;20112;-60
2021/11/15 02:42:26;;;;;;;3.50;3.08;;;16.10;99.90;;;;;;5052542;28;20037;-59
2021/11/15 02:44:52;;;;;;;3.92;2.83;;;16.20;99.90;;;;;;5053282;28;20036;-60
2021/11/15 02:47:19;;;;;;;3.80;3.40;;;16.20;99.90;;;;;;5052071;28;20501;-60
2021/11/15 02:49:46;;;;;;;3.85;3.38;;;16.30;99.90;;;;;;5053105;28;20490;-60
2021/11/15 02:52:11;;;;;;;3.88;3.22;;;16.30;99.90;;;;;;5039331;28;20051;-60
2021/11/15 02:54:38;;;;;;;4.85;3.90;;;16.30;99.90;;;;;;5033649;28;20100;-60
2021/11/15 02:57:04;;;;;;;3.10;2.90;;;16.40;99.90;;;;;;5045160;28;20044;-60
2021/11/15 02:59:30;;;;;;;3.47;2.95;;;16.20;99.90;;;;;;5052904;28;20025;-60
2021/11/15 03:01:55;;;;;;;4.25;3.50;;;16.30;99.90;;;;;;5051778;28;20076;-59
2021/11/15 03:04:21;;;;;;;3.17;2.88;;;16.20;99.90;;;;;;5052850;28;20036;-60
2021/11/15 03:06:46;;;;;;;3.80;3.40;;;16.20;99.90;;;;;;5051854;28;20131;-59
2021/11/15 03:09:12;;;;;;;5.43;3.38;;;16.40;99.90;;;;;;5052811;28;20032;-59
2021/11/15 03:11:38;;;;;;;6.75;3.83;;;16.40;99.90;;;;;;5051702;28;20029;-60
2021/11/15 03:14:04;;;;;;;4.22;3.83;;;16.30;99.90;;;;;;5049517;28;20040;-59
2021/11/15 03:16:29;;;;;;;4.50;3.90;;;16.50;99.90;;;;;;5050943;28;20116;-60
2021/11/15 03:18:55;;;;;;;4.38;3.97;;;16.20;99.90;;;;;;5054590;28;20040;-60
2021/11/15 03:21:23;;;;;;;3.88;3.58;;;16.50;99.90;;;;;;5056300;28;20032;-60
2021/11/15 03:23:51;;;;;;;4.35;3.95;;;16.30;99.90;;;;;;5056750;28;20448;-59
2021/11/15 03:26:18;;;;;;;4.70;3.67;;;16.30;99.90;;;;;;5055719;28;20036;-60
2021/11/15 03:28:48;;;;;;;5.65;4.72;;;16.20;99.90;;;;;;5056579;28;20066;-60
2021/11/15 03:31:32;;;;;;;4.30;3.90;;;16.40;99.90;;;;;;5055316;28;20506;-59
2021/11/15 03:34:01;;;;;;;4.10;3.70;;;16.40;99.90;;;;;;5055298;28;20479;-59
2021/11/15 03:36:27;;;;;;;4.53;4.13;;;16.20;99.90;;;;;;5054597;28;20482;-59
2021/11/15 03:38:54;;;;;;;4.35;3.95;;;16.40;99.90;;;;;;5054962;28;20033;-60
2021/11/15 03:41:20;;;;;;;5.25;4.70;;;16.30;99.90;;;;;;5054312;28;20022;-59
2021/11/15 03:43:46;;;;;;;4.32;3.92;;;16.30;99.90;;;;;;5056116;28;20486;-59
2021/11/15 03:46:12;;;;;;;5.03;4.43;;;16.20;99.90;;;;;;5055130;28;20030;-58
2021/11/15 03:48:38;;;;;;;5.07;4.57;;;16.20;99.90;;;;;;5055436;28;20167;-60
2021/11/15 03:51:04;;;;;;;5.18;4.47;;;16.10;99.90;;;;;;5055033;28;20096;-60
2021/11/15 03:53:33;;;;;;;5.82;4.68;;;16.20;99.90;;;;;;5056277;28;20025;-59
2021/11/15 03:55:59;;;;;;;7.32;4.57;;;16.40;99.90;;;;;;5070831;28;20023;-59
2021/11/15 03:58:25;;;;;;;5.63;4.32;;;16.30;99.90;;;;;;5056003;28;20108;-59
2021/11/15 04:00:51;;;;;;;5.90;5.35;;;16.10;99.90;;;;;;5056028;28;20509;-59
2021/11/15 04:03:38;;;;;;;7.00;5.28;;;16.10;99.90;;;;;;5036341;28;20042;-60
2021/11/15 04:06:12;;;;;;;6.15;5.30;;;16.10;99.90;;;;;;5048925;28;20025;-60
2021/11/15 04:08:39;;;;;;;5.55;5.05;;;16.30;99.90;;;;;;5055795;28;20095;-59
2021/11/15 04:11:07;;;;;;;4.65;4.25;;;16.20;99.90;;;;;;5055262;28;20433;-59
2021/11/15 04:13:36;;;;;;;5.38;4.88;;;16.20;99.90;;;;;;5055818;28;20086;-60
2021/11/15 04:16:05;;;;;;;6.65;5.05;;;16.10;99.90;;;;;;5054676;28;20104;-59
2021/11/15 04:18:36;;;;;;;4.72;4.30;;;16.00;99.90;;;;;;5035706;28;20025;-59
2021/11/15 04:21:03;;;;;;;5.28;4.45;;;16.00;99.90;;;;;;5035673;28;20025;-58
2021/11/15 04:23:29;;;;;;;5.50;5.00;;;16.00;99.90;;;;;;5036065;28;20061;-59
2021/11/15 04:25:55;;;;;;;5.03;4.53;;;16.00;99.90;;;;;;5034290;28;20376;-59
2021/11/15 04:28:20;;;;;;;5.93;4.68;;;16.00;99.90;;;;;;5053994;28;20040;-58
2021/11/15 04:30:46;;;;;;;5.25;4.75;;;15.90;99.90;;;;;;5053675;28;20049;-60
2021/11/15 04:33:12;;;;;;;5.60;4.85;;;16.00;99.90;;;;;;5053083;28;20429;-56
2021/11/15 04:35:38;;;;;;;4.97;4.47;;;15.90;99.90;;;;;;5054117;28;20021;-57
2021/11/15 04:38:06;;;;;;;6.10;5.03;;;15.70;99.90;;;;;;5053485;28;20070;-58
2021/11/15 04:40:33;;;;;;;5.43;4.75;;;15.60;99.90;;;;;;5036404;28;20052;-60
2021/11/15 04:42:59;;;;;;;4.50;4.00;;;15.70;99.90;;;;;;5041906;28;20034;-59
2021/11/15 04:45:25;;;;;;;5.25;4.75;;;15.50;99.90;;;;;;5054541;28;20029;-58
2021/11/15 04:47:51;;;;;;;6.03;4.95;;;15.60;99.90;;;;;;5054057;28;20040;-59
2021/11/15 04:50:17;;;;;;;7.65;4.97;;;15.60;99.90;;;;;;5054959;28;20425;-60
2021/11/15 04:52:43;;;;;;;5.45;4.95;;;15.50;99.90;;;;;;5049658;28;20112;-59
2021/11/15 04:55:11;;;;;;;5.70;5.20;;;15.40;99.90;;;;;;5054694;28;20044;-59
2021/11/15 04:57:37;;;;;;;6.30;5.70;;;15.30;99.90;;;;;;5053224;28;20037;-59
2021/11/15 05:00:09;;;;;;;5.90;5.40;;;15.50;99.90;;;;;;5052510;28;20033;-58
2021/11/15 05:02:35;;;;;;;7.25;5.63;;;15.60;99.90;;;;;;5053673;28;20065;-58
2021/11/15 05:05:01;;;;;;;6.18;5.57;;;15.70;99.90;;;;;;5035164;28;20442;-58
2021/11/15 05:07:27;;;;;;;6.80;5.55;;;15.60;99.90;;;;;;5046842;28;20036;-59
2021/11/15 05:09:52;;;;;;;6.20;5.50;;;15.70;99.90;;;;;;5054673;28;20475;-59
2021/11/15 05:12:18;;;;;;;6.15;5.55;;;15.70;99.90;;;;;;5053446;28;20033;-59
2021/11/15 05:14:43;;;;;;;6.70;5.28;;;15.70;99.90;;;;;;5054495;28;20033;-59
2021/11/15 05:17:09;;;;;;;5.72;5.10;;;15.60;99.90;;;;;;5053431;28;20021;-58
2021/11/15 05:19:35;;;;;;;5.43;4.93;;;15.70;99.90;;;;;;5052746;28;20382;-59
2021/11/15 05:22:00;;;;;;;6.05;5.18;;;15.70;99.90;;;;;;5053430;28;20482;-60
2021/11/15 05:24:26;;;;;;;5.00;4.55;;;15.80;99.90;;;;;;5048593;28;20044;-59
2021/11/15 05:26:51;;;;;;;5.45;4.50;;;15.80;99.90;;;;;;5052268;28;20064;-59
2021/11/15 05:29:17;;;;;;;4.45;4.05;;;15.80;99.90;;;;;;5053484;28;20517;-59
2021/11/15 05:31:43;;;;;;;4.93;4.45;;;15.80;99.90;;;;;;5052725;28;20053;-56
2021/11/15 05:34:09;;;;;;;4.20;3.90;;;16.00;99.90;;;;;;5052798;28;20363;-59
2021/11/15 05:36:35;;;;;;;5.43;3.95;;;15.90;99.90;;;;;;5050146;28;20097;-59
2021/11/15 05:39:01;;;;;;;4.22;3.78;;;15.90;99.90;;;;;;5050478;28;20048;-59
2021/11/15 05:41:26;;;;;;;5.32;4.32;;;16.00;99.90;;;;;;5052024;28;20516;-57
2021/11/15 05:43:52;;;;;;;5.07;4.03;;;16.10;99.90;;;;;;5054213;28;20047;-59
2021/11/15 05:46:17;;;;;;;3.58;3.28;;;15.90;99.90;;;;;;5052531;28;20036;-58
2021/11/15 05:48:43;;;;;;;5.80;4.93;;;15.90;99.90;;;;;;5052346;28;20021;-59
2021/11/15 05:51:09;;;;;;;4.55;4.10;;;16.00;99.90;;;;;;5053924;28;20025;-59
2021/11/15 05:53:36;;;;;;;4.25;3.78;;;16.00;99.90;;;;;;5053347;28;20040;-58
2021/11/15 05:56:05;;;;;;;7.40;4.47;;;16.00;99.90;;;;;;5053716;28;20028;-58
2021/11/15 05:58:31;;;;;;;4.78;4.05;;;16.00;99.90;;;;;;5051777;28;20053;-58
2021/11/15 06:00:56;;;;;;;5.78;3.85;;;16.10;99.90;;;;;;5053546;28;20045;-59
2021/11/15 06:03:23;;;;;;;4.28;3.58;;;16.00;99.90;;;;;;5051434;28;20481;-59
2021/11/15 06:05:49;;;;;;;4.90;3.90;;;16.10;99.90;;;;;;5053614;28;20099;-60
2021/11/15 06:08:14;;;;;;;4.30;3.42;;;16.00;99.90;;;;;;5050675;28;20108;-57
2021/11/15 06:10:40;;;;;;;5.97;3.47;;;16.10;99.90;;;;;;5053575;28;20390;-59
2021/11/15 06:13:06;;;;;;;3.45;2.92;;;16.10;99.90;;;;;;5049784;28;20095;-58
2021/11/15 06:15:32;;;;;;;6.25;3.42;;;16.00;99.90;;;;;;5040056;28;20021;-59
2021/11/15 06:17:58;;;;;;;4.38;3.63;;;16.10;99.90;;;;;;5032407;28;20091;-58
2021/11/15 06:20:23;;;;;;;4.03;3.67;;;16.10;99.90;;;;;;5033416;28;20099;-59
2021/11/15 06:22:49;;;;;;;3.70;3.03;;;16.10;99.90;;;;;;5043227;28;20028;-59
2021/11/15 06:25:16;;;;;;;8.93;3.70;;;16.10;99.90;;;;;;5051097;28;20032;-58
2021/11/15 06:27:42;;;;;;;3.10;2.88;;;16.00;99.90;;;;;;5052056;28;20021;-59
2021/11/15 06:30:11;;;;;;;4.38;3.97;;;16.10;99.90;;;;;;5052864;28;20053;-59
2021/11/15 06:32:37;;;;;;;3.72;3.42;;;16.10;99.90;;;;;;5049416;28;20032;-59
2021/11/15 06:35:04;;;;;;;3.85;3.55;;;16.20;99.90;;;;;;5048636;28;20033;-59
2021/11/15 06:37:30;;;;;;;4.63;3.95;;;16.10;99.90;;;;;;5039893;28;20043;-59
2021/11/15 06:39:56;;;;;;;4.03;3.63;;;16.10;99.90;;;;;;5050067;28;20487;-59
2021/11/15 06:42:22;;;;;;;4.20;3.60;;;16.10;99.90;;;;;;5049064;28;20024;-59
2021/11/15 06:44:48;;;;;;;5.90;3.85;;;16.30;99.90;;;;;;5052483;28;20036;-60
2021/11/15 06:47:13;;;;;;;3.40;3.10;;;16.30;99.90;;;;;;5040392;28;20494;-59
2021/11/15 06:49:39;;;;;;;3.95;3.50;;;16.20;99.90;;;;;;5051532;28;20111;-59
2021/11/15 06:52:06;;;;;;;5.00;3.90;;;16.30;99.90;;;;;;5051355;28;20494;-59
2021/11/15 06:54:32;;;;;;;5.32;3.97;;;16.10;99.90;;;;;;5051602;28;20029;-59
2021/11/15 06:56:58;;;;;;;4.28;3.90;;;16.30;99.90;;;;;;5046687;28;20029;-59
2021/11/15 06:59:23;;;;;;;6.65;4.57;;;16.40;99.90;;;;;;5051339;28;20029;-60
2021/11/15 07:01:49;;;;;;;4.65;3.75;;;16.30;99.90;;;;;;5051381;28;20372;-58
2021/11/15 07:04:15;;;;;;;7.13;4.07;;;16.30;99.90;;;;;;5038574;28;20446;-58
2021/11/15 07:06:43;;;;;;;5.53;4.03;;;16.40;99.90;;;;;;5042796;28;20416;-59
2021/11/15 07:09:09;;;;;;;5.18;4.05;;;16.40;99.90;;;;;;5050676;28;20052;-59
2021/11/15 07:11:36;;;;;;;4.50;3.90;;;16.40;99.90;;;;;;5049130;28;20025;-59
2021/11/15 07:14:06;;;;;;;4.85;4.30;;;16.40;99.90;;;;;;5047925;28;20036;-59
2021/11/15 07:16:32;;;;;;;4.70;4.20;;;16.40;99.90;;;;;;5038391;28;20370;-58
2021/11/15 07:18:57;;;;;;;6.45;4.40;;;16.40;99.90;;;;;;5046334;28;20029;-59
2021/11/15 07:21:24;;;;;;;4.43;3.95;;;16.30;99.90;;;;;;5051624;28;20082;-59
2021/11/15 07:23:50;;;;;;;4.40;3.63;;;16.40;99.90;;;;;;5050286;28;20041;-59
2021/11/15 07:26:16;;;;;;;4.43;4.03;;;16.20;99.90;;;;;;5052071;28;20098;-58
2021/11/15 07:28:42;;;;;;;6.07;4.88;;;16.10;99.90;;;;;;5049570;28;20029;-57
2021/11/15 07:31:09;;;;;;;4.40;4.00;;;16.20;99.90;;;;;;5051006;28;20128;-59
2021/11/15 07:33:35;;;;;;;5.40;4.30;;;16.30;99.90;;;;;;5046462;28;20029;-58
2021/11/15 07:36:02;;;;;;;6.25;4.40;;;16.30;99.90;;;;;;5041926;28;20026;-60
2021/11/15 07:38:27;;;;;;;9.38;4.53;;;16.30;99.90;;;;;;5034579;28;20048;-58
2021/11/15 07:40:53;;;;;;;5.88;4.45;;;16.30;99.90;;;;;;5065745;28;20033;-59
2021/11/15 07:43:19;;;;;;;7.47;4.88;;;16.30;99.90;;;;;;5041961;28;20029;-59
2021/11/15 07:45:44;;;;;;;6.00;5.03;;;16.20;99.90;;;;;;5048006;28;20454;-59
2021/11/15 07:48:11;;;;;;;6.40;4.95;;;16.40;99.90;;;;;;5042339;28;20036;-59
2021/11/15 07:50:37;;;;;;;7.40;5.90;;;16.40;99.90;;;;;;5044725;28;20025;-59
2021/11/15 07:53:03;;;;;;;5.75;4.30;;;16.30;99.90;;;;;;5044626;28;20032;-59
2021/11/15 07:55:29;;;;;;;7.32;6.15;;;16.20;99.90;;;;;;5050790;28;20021;-59
2021/11/15 07:57:56;;;;;;;8.93;4.95;;;16.40;99.90;;;;;;5050086;28;20029;-59
2021/11/15 08:00:24;;;;;;;6.85;5.05;;;16.40;99.90;;;;;;5051600;28;20025;-58
2021/11/15 08:02:51;;;;;;;8.13;5.60;;;16.30;99.90;;;;;;5040396;28;20067;-59
2021/11/15 08:05:18;;;;;;;8.25;5.30;;;16.30;99.90;;;;;;5044835;28;20572;-61
2021/11/15 08:07:44;;;;;;;8.90;6.00;;;16.30;99.90;;;;;;5044903;28;20467;-58
2021/11/15 08:10:12;;;;;;;8.00;6.38;;;16.20;99.90;;;;;;5051046;28;20033;-60
2021/11/15 08:12:43;;;;;;;8.68;5.50;;;16.40;99.90;;;;;;5050143;28;20041;-60
2021/11/15 08:15:11;;;;;;;10.25;6.13;;;16.10;99.90;;;;;;5040093;28;20032;-60
2021/11/15 08:17:39;;;;;;;4.95;4.53;;;16.20;99.90;;;;;;5049695;28;20068;-59
2021/11/15 08:20:06;;;;;;;9.20;5.55;;;16.30;99.90;;;;;;5055279;28;20033;-60
2021/11/15 08:22:33;;;;;;;5.60;5.00;;;16.20;99.90;;;;;;5047017;28;20025;-59
2021/11/15 08:24:59;;;;;;;8.93;5.78;;;16.30;99.90;;;;;;5047673;28;20800;-60
2021/11/15 08:27:24;;;;;;;7.22;5.68;;;16.30;99.90;;;;;;5051217;28;20036;-60
2021/11/15 08:29:50;;;;;;;7.50;5.65;;;16.30;99.90;;;;;;5040784;28;20037;-59
2021/11/15 08:32:16;;;;;;;6.28;5.68;;;16.20;99.90;;;;;;5053937;28;20478;-60
2021/11/15 08:34:43;;;;;;;7.82;5.45;;;16.40;99.90;;;;;;5040467;28;20056;-58
2021/11/15 08:37:10;;;;;;;6.10;5.50;;;16.40;99.90;;;;;;5038299;28;20056;-60
2021/11/15 08:39:36;;;;;;;7.43;5.43;;;16.30;99.90;;;;;;5040299;28;20446;-59
2021/11/15 08:42:05;;;;;;;9.40;6.20;;;16.30;99.90;;;;;;5051053;28;20060;-59
2021/11/15 08:44:32;;;;;;;8.18;5.80;;;16.40;99.90;;;;;;5035436;28;20041;-59
2021/11/15 08:46:59;;;;;;;6.70;5.28;;;16.50;99.90;;;;;;5038422;28;20121;-59
2021/11/15 08:49:30;;;;;;;6.78;5.47;;;16.50;99.90;;;;;;5053069;28;20490;-59
2021/11/15 08:51:57;;;;;;;9.95;6.00;;;16.40;99.90;;;;;;5055190;28;20494;-60
2021/11/15 08:54:23;;;;;;;9.52;6.55;;;16.40;99.90;;;;;;5049002;28;20108;-59
2021/11/15 08:56:53;;;;;;;8.73;6.10;;;16.60;99.90;;;;;;5054382;28;20364;-61
2021/11/15 08:59:19;;;;;;;10.23;6.18;;;16.50;99.90;;;;;;5050251;28;20040;-60
2021/11/15 09:01:45;;;;;;;10.15;6.70;;;16.60;99.90;;;;;;5051783;28;20029;-60
2021/11/15 09:04:11;;;;;;;9.18;6.50;;;16.40;99.90;;;;;;5045730;28;20041;-61
2021/11/15 09:06:38;;;;;;;8.27;7.35;;;16.40;99.90;;;;;;5037989;28;20021;-59
2021/11/15 09:09:09;;;;;;;10.45;7.30;;;16.60;99.90;;;;;;5034886;28;20037;-60
2021/11/15 09:11:35;;;;;;;10.00;7.07;;;16.50;99.90;;;;;;5035839;28;20383;-60
2021/11/15 09:14:00;;;;;;;11.05;7.22;;;16.50;99.90;;;;;;5049433;28;20021;-60
2021/11/15 09:16:26;;;;;;;12.30;7.88;;;16.60;99.90;;;;;;5048894;28;20025;-57
2021/11/15 09:18:52;;;;;;;8.70;6.93;;;16.60;99.90;;;;;;5047123;28;20532;-61
2021/11/15 09:21:18;;;;;;;9.90;6.68;;;16.80;99.90;;;;;;5048838;28;20032;-58
2021/11/15 09:23:45;;;;;;;9.05;6.93;;;16.60;99.90;;;;;;5043367;28;20096;-58
2021/11/15 09:26:13;;;;;;;7.97;6.18;;;16.70;99.90;;;;;;5035746;28;20022;-58
2021/11/15 09:28:40;;;;;;;9.18;6.97;;;16.70;99.90;;;;;;5034894;28;20037;-60
2021/11/15 09:31:07;;;;;;;11.18;6.22;;;16.80;99.90;;;;;;5048265;28;20074;-56
2021/11/15 09:33:33;;;;;;;9.20;7.28;;;16.80;99.90;;;;;;5043144;28;20041;-57
2021/11/15 09:35:59;;;;;;;12.80;6.75;;;16.90;99.90;;;;;;5040486;28;20433;-60
2021/11/15 09:38:26;;;;;;;13.57;7.70;;;17.00;99.90;;;;;;5053209;28;20033;-61
2021/11/15 09:40:58;;;;;;;11.32;6.75;;;17.10;99.90;;;;;;5050523;28;20025;-59
2021/11/15 09:43:25;;;;;;;10.77;7.35;;;17.10;99.90;;;;;;5044679;28;20045;-59
2021/11/15 09:45:52;;;;;;;13.70;7.68;;;17.00;99.90;;;;;;5052765;28;20024;-59
2021/11/15 09:48:18;;;;;;;15.32;7.70;;;17.10;99.90;;;;;;5043287;28;20140;-59
2021/11/15 09:50:43;;;;;;;18.42;9.10;;;17.10;99.90;;;;;;5045436;28;20392;-59
2021/11/15 09:53:10;;;;;;;13.38;9.05;;;17.20;99.90;;;;;;5046893;28;20395;-59
2021/11/15 09:55:36;;;;;;;13.57;8.15;;;17.20;99.90;;;;;;5052074;28;20524;-59
2021/11/15 09:58:02;;;;;;;12.80;8.70;;;17.30;99.90;;;;;;5049895;28;20071;-59
2021/11/15 10:00:33;;;;;;;13.05;7.82;;;17.10;99.90;;;;;;5037691;28;20521;-60
2021/11/15 10:03:01;;;;;;;9.20;7.65;;;17.10;99.90;;;;;;5052598;28;20029;-59
2021/11/15 10:05:27;;;;;;;9.57;7.63;;;17.00;99.90;;;;;;5048296;28;20025;-60
2021/11/15 10:07:56;;;;;;;13.55;10.18;;;17.00;99.90;;;;;;5046071;28;23712;-59
2021/11/15 10:10:39;;;;;;;13.52;9.27;;;17.00;99.90;;;;;;5063769;28;20036;-59
2021/11/15 10:13:22;;;;;;;14.05;10.20;;;17.10;99.90;;;;;;5047259;28;20025;-59
2021/11/15 10:16:01;;;;;;;14.43;9.40;;;17.00;99.90;;;;;;5042242;28;20052;-59
2021/11/15 10:18:52;;;;;;;16.98;9.57;;;17.00;99.90;;;;;;5051314;28;20494;-59
2021/11/15 10:21:21;;;;;;;15.23;9.70;;;16.80;99.90;;;;;;5051188;28;20044;-58
2021/11/15 10:23:49;;;;;;;13.73;9.30;;;16.70;99.90;;;;;;5042230;28;20041;-57
2021/11/15 10:26:40;;;;;;;15.50;8.98;;;16.70;99.90;;;;;;5040838;28;20052;-57
2021/11/15 10:29:26;;;;;;;13.05;9.15;;;16.80;99.90;;;;;;5047755;28;20032;-58
2021/11/15 10:32:15;;;;;;;12.82;8.43;;;16.90;99.90;;;;;;5052042;28;20028;-59
2021/11/15 10:35:03;;;;;;;15.52;8.80;;;16.80;99.90;;;;;;5050496;28;20034;-58
2021/11/15 10:37:34;;;;;;;10.85;8.80;;;16.80;99.90;;;;;;5034734;28;20124;-56
2021/11/15 10:40:11;;;;;;;14.52;10.20;;;16.90;99.90;;;;;;5033126;28;20025;-58
2021/11/15 10:42:50;;;;;;;14.52;9.40;;;17.00;99.90;;;;;;5048574;28;20029;-64
2021/11/15 10:45:22;;;;;;;12.77;9.68;;;16.90;99.90;;;;;;5049939;28;20059;-59
2021/11/15 10:47:53;;;;;;;12.40;9.18;;;17.00;99.90;;;;;;5052944;28;20090;-59
2021/11/15 10:50:24;;;;;;;12.65;9.50;;;16.90;99.90;;;;;;5051462;28;20025;-60
2021/11/15 10:53:11;;;;;;;11.68;9.65;;;17.00;99.90;;;;;;5052432;28;20052;-60
2021/11/15 10:55:40;;;;;;;12.63;10.60;;;17.00;99.90;;;;;;5039100;28;20025;-59
2021/11/15 10:58:23;;;;;;;11.23;10.02;;;17.00;99.90;;;;;;5050046;28;20033;-59
2021/11/15 11:00:54;;;;;;;10.23;8.73;;;17.10;99.90;;;;;;5037704;28;20032;-59
2021/11/15 11:03:24;;;;;;;14.88;9.93;;;17.20;99.90;;;;;;5048901;28;20514;-59
2021/11/15 11:05:52;;;;;;;13.77;11.45;;;17.10;99.90;;;;;;5043405;28;20482;-59
2021/11/15 11:08:21;;;;;;;12.77;9.90;;;17.10;99.90;;;;;;5050705;28;20082;-60
2021/11/15 11:11:10;;;;;;;13.15;9.50;;;17.20;99.90;;;;;;5048061;28;20494;-59
2021/11/15 11:13:53;;;;;;;14.32;10.02;;;17.00;99.90;;;;;;5046665;28;20067;-60
2021/11/15 11:16:34;;;;;;;13.38;9.93;;;17.00;99.90;;;;;;5032583;28;20061;-61
2021/11/15 11:19:15;;;;;;;17.30;10.82;;;17.00;99.90;;;;;;5040305;28;20021;-59
2021/11/15 11:24:32;;;;;;;14.77;10.82;;;17.20;99.90;;;;;;5035635;28;20053;-59
2021/11/15 11:27:01;;;;;;;14.93;10.40;;;16.90;99.90;;;;;;5051745;28;20052;-60
2021/11/15 11:29:31;;;;;;;15.50;11.07;;;16.90;99.90;;;;;;5046639;28;20060;-60
2021/11/15 11:32:01;;;;;;;15.77;11.80;;;16.90;99.90;;;;;;5052150;28;20051;-59
2021/11/15 11:34:27;;;;;;;15.80;12.18;;;16.90;99.90;;;;;;5049360;28;20032;-59
2021/11/15 11:36:54;;;;;;;17.08;12.60;;;16.80;99.90;;;;;;5052190;28;20112;-59
2021/11/15 11:39:24;;;;;;;12.90;11.52;;;16.90;99.90;;;;;;5043448;28;20103;-59
2021/11/15 11:41:54;;;;;;;18.10;12.18;;;16.80;99.90;;;;;;5056338;28;20080;-59
2021/11/15 11:44:22;;;;;;;18.00;11.38;;;16.60;99.90;;;;;;5052234;28;20044;-59
2021/11/15 11:46:48;;;;;;;15.20;11.32;;;16.60;99.90;;;;;;5054428;28;20195;-59
2021/11/15 11:49:18;;;;;;;12.65;10.60;;;16.70;99.90;;;;;;5046432;28;20458;-60
2021/11/15 11:51:47;;;;;;;12.60;11.35;;;16.80;99.90;;;;;;5041806;28;20044;-59
2021/11/15 11:54:18;;;;;;;15.68;11.65;;;16.70;99.90;;;;;;5051499;28;20505;-60
2021/11/15 11:56:59;;;;;;;15.90;12.73;;;17.00;99.90;;;;;;5051978;28;20025;-60
2021/11/15 11:59:25;;;;;;;14.30;12.80;;;16.80;99.90;;;;;;5043971;28;20026;-60
2021/11/15 12:01:58;;;;;;;16.65;13.15;;;17.00;99.90;;;;;;5036043;28;20026;-59
2021/11/15 12:04:25;;;;;;;14.30;11.18;;;16.80;99.90;;;;;;5047787;28;20048;-59
2021/11/15 12:06:52;;;;;;;14.32;11.23;;;16.70;99.90;;;;;;5055241;28;20025;-59
2021/11/15 12:09:18;;;;;;;13.77;11.00;;;16.80;99.90;;;;;;5054297;28;20475;-60
2021/11/15 12:11:54;;;;;;;14.00;11.93;;;16.90;99.90;;;;;;5055785;28;20017;-59
2021/11/15 12:14:34;;;;;;;18.35;13.57;;;16.80;99.90;;;;;;5044529;28;20545;-60
2021/11/15 12:17:10;;;;;;;16.52;12.95;;;17.00;99.90;;;;;;5039951;28;20025;-60
2021/11/15 12:19:54;;;;;;;14.77;13.15;;;16.80;99.90;;;;;;5045305;28;20090;-60
2021/11/15 12:22:21;;;;;;;16.70;12.50;;;16.80;99.90;;;;;;5051844;28;20021;-60
2021/11/15 12:25:06;;;;;;;14.73;12.93;;;16.70;99.90;;;;;;5053282;28;20517;-60
2021/11/15 12:27:53;;;;;;;17.73;12.73;;;17.00;99.90;;;;;;5054697;28;20115;-60
2021/11/15 12:30:20;;;;;;;22.15;15.30;;;16.90;99.90;;;;;;5053006;28;20044;-59
2021/11/15 12:33:15;;;;;;;18.45;14.10;;;16.70;99.90;;;;;;5055340;28;20016;-60
2021/11/15 12:36:04;;;;;;;17.98;15.20;;;16.80;99.90;;;;;;5054589;28;20060;-60
2021/11/15 12:38:37;;;;;;;18.90;14.30;;;16.80;99.90;;;;;;5044609;28;20027;-59
2021/11/15 12:41:21;;;;;;;13.55;11.90;;;16.90;99.90;;;;;;5034587;28;20022;-60
2021/11/15 12:43:58;;;;;;;15.60;13.25;;;16.80;99.90;;;;;;5047849;28;20524;-60
2021/11/15 12:46:24;;;;;;;18.02;12.30;;;16.80;99.90;;;;;;5055234;28;20040;-60
2021/11/15 12:48:52;;;;;;;14.55;12.18;;;16.80;99.90;;;;;;5050764;28;20044;-62
2021/11/15 12:51:21;;;;;;;18.77;12.77;;;16.80;99.90;;;;;;5035085;28;20017;-60